RYR926C LEGE-LIRP
Flight info
| Callsign | RYR926C |
|---|---|
| Flight time | 0h 55m |
| Altitude | 28000 |
| Route | BGR L110 DIBER/N0457F300 DCT PIGOS/N0454F290 DCT KONER |
| Aircraft | B738/M-SDE2E3FGHIRWXY/LB1 |
Departure
| Time | 2026-04-20 18:19 |
|---|---|
| Airport | Girona-Costa Brava Airport (LEGE) |
Arrival
| Time | 2026-04-20 19:14 |
|---|---|
| Airport | Pisa International Airport (LIRP) |
| Time | Latitude | Longitude | Altitude | Speed | Heading |
|---|---|---|---|---|---|
| 2026-04-20 17:59 | 41.90093 | 2.76555 | 417 ft | 0 kts | 106° |
| 2026-04-20 18:08 | 41.90094 | 2.76549 | 453 ft | 3 kts | 106° |
| 2026-04-20 18:09 | 41.90101 | 2.76514 | 420 ft | 4 kts | 106° |
| 2026-04-20 18:09 | 41.90109 | 2.76480 | 414 ft | 4 kts | 106° |
| 2026-04-20 18:09 | 41.90113 | 2.76461 | 414 ft | 0 kts | 106° |
| 2026-04-20 18:12 | 41.90112 | 2.76462 | 414 ft | 1 kts | 105° |
| 2026-04-20 18:12 | 41.90118 | 2.76480 | 414 ft | 2 kts | 43° |
| 2026-04-20 18:12 | 41.90134 | 2.76487 | 422 ft | 2 kts | 9° |
| 2026-04-20 18:12 | 41.90148 | 2.76486 | 422 ft | 2 kts | 349° |
| 2026-04-20 18:13 | 41.90167 | 2.76464 | 429 ft | 5 kts | 298° |
| 2026-04-20 18:13 | 41.90179 | 2.76395 | 420 ft | 9 kts | 285° |
| 2026-04-20 18:13 | 41.90203 | 2.76341 | 431 ft | 5 kts | 333° |
| 2026-04-20 18:13 | 41.90224 | 2.76340 | 434 ft | 3 kts | 5° |
| 2026-04-20 18:14 | 41.90257 | 2.76349 | 435 ft | 7 kts | 13° |
| 2026-04-20 18:14 | 41.90323 | 2.76372 | 434 ft | 12 kts | 15° |
| 2026-04-20 18:14 | 41.90423 | 2.76409 | 438 ft | 17 kts | 16° |
| 2026-04-20 18:14 | 41.90550 | 2.76458 | 443 ft | 21 kts | 16° |
| 2026-04-20 18:15 | 41.90692 | 2.76512 | 449 ft | 21 kts | 15° |
| 2026-04-20 18:15 | 41.90834 | 2.76566 | 456 ft | 21 kts | 16° |
| 2026-04-20 18:15 | 41.90975 | 2.76619 | 461 ft | 22 kts | 15° |
| 2026-04-20 18:15 | 41.91134 | 2.76680 | 463 ft | 25 kts | 16° |
| 2026-04-20 18:16 | 41.91290 | 2.76739 | 465 ft | 15 kts | 16° |
| 2026-04-20 18:16 | 41.91387 | 2.76776 | 465 ft | 13 kts | 15° |
| 2026-04-20 18:16 | 41.91457 | 2.76744 | 469 ft | 9 kts | 329° |
| 2026-04-20 18:16 | 41.91500 | 2.76708 | 472 ft | 6 kts | 323° |
| 2026-04-20 18:17 | 41.91520 | 2.76680 | 470 ft | 3 kts | 306° |
| 2026-04-20 18:17 | 41.91530 | 2.76654 | 474 ft | 3 kts | 291° |
| 2026-04-20 18:17 | 41.91535 | 2.76619 | 473 ft | 4 kts | 264° |
| 2026-04-20 18:17 | 41.91511 | 2.76593 | 475 ft | 6 kts | 199° |
| 2026-04-20 18:18 | 41.91422 | 2.76560 | 474 ft | 31 kts | 195° |
| 2026-04-20 18:18 | 41.90973 | 2.76390 | 467 ft | 100 kts | 195° |
| 2026-04-20 18:18 | 41.90132 | 2.76075 | 434 ft | 149 kts | 193° |
| 2026-04-20 18:18 | 41.89059 | 2.75708 | 737 ft | 161 kts | 194° |
| 2026-04-20 18:19 | 41.87979 | 2.75351 | 1345 ft | 159 kts | 192° |
| 2026-04-20 18:19 | 41.86868 | 2.75011 | 1703 ft | 175 kts | 195° |
| 2026-04-20 18:19 | 41.85605 | 2.74567 | 1910 ft | 197 kts | 196° |
| 2026-04-20 18:19 | 41.84252 | 2.74065 | 2381 ft | 206 kts | 197° |
| 2026-04-20 18:20 | 41.82841 | 2.73572 | 2883 ft | 215 kts | 191° |
| 2026-04-20 18:20 | 41.81289 | 2.73829 | 3181 ft | 239 kts | 154° |
| 2026-04-20 18:20 | 41.80040 | 2.75307 | 3870 ft | 241 kts | 121° |
| 2026-04-20 18:20 | 41.79536 | 2.77386 | 4823 ft | 234 kts | 92° |
| 2026-04-20 18:21 | 41.79756 | 2.79529 | 5494 ft | 235 kts | 73° |
| 2026-04-20 18:21 | 41.80292 | 2.81638 | 6103 ft | 245 kts | 65° |
| 2026-04-20 18:21 | 41.81074 | 2.83835 | 6432 ft | 278 kts | 62° |
| 2026-04-20 18:21 | 41.81958 | 2.86167 | 7210 ft | 289 kts | 62° |
| 2026-04-20 18:22 | 41.82885 | 2.88585 | 8149 ft | 294 kts | 62° |
| 2026-04-20 18:22 | 41.83828 | 2.91065 | 9101 ft | 300 kts | 61° |
| 2026-04-20 18:22 | 41.84780 | 2.93594 | 10022 ft | 307 kts | 61° |
| 2026-04-20 18:22 | 41.85758 | 2.96216 | 10610 ft | 326 kts | 62° |
| 2026-04-20 18:23 | 41.86812 | 2.99057 | 10818 ft | 355 kts | 62° |
| 2026-04-20 18:23 | 41.87943 | 3.02123 | 11179 ft | 374 kts | 62° |
| 2026-04-20 18:23 | 41.89106 | 3.05298 | 11925 ft | 380 kts | 62° |
| 2026-04-20 18:23 | 41.90148 | 3.08571 | 12780 ft | 385 kts | 71° |
| 2026-04-20 18:24 | 41.90744 | 3.12102 | 13631 ft | 390 kts | 78° |
| 2026-04-20 18:24 | 41.91226 | 3.15696 | 14395 ft | 393 kts | 78° |
| 2026-04-20 18:24 | 41.91690 | 3.19286 | 15111 ft | 397 kts | 78° |
| 2026-04-20 18:24 | 41.92168 | 3.22960 | 15823 ft | 401 kts | 78° |
| 2026-04-20 18:25 | 41.92658 | 3.26663 | 16538 ft | 405 kts | 78° |
| 2026-04-20 18:25 | 41.93163 | 3.30404 | 17236 ft | 409 kts | 78° |
| 2026-04-20 18:25 | 41.93677 | 3.34177 | 17909 ft | 413 kts | 78° |
| 2026-04-20 18:25 | 41.94201 | 3.37992 | 18554 ft | 416 kts | 77° |
| 2026-04-20 18:26 | 41.94729 | 3.41825 | 19150 ft | 419 kts | 77° |
| 2026-04-20 18:26 | 41.95259 | 3.45678 | 19689 ft | 422 kts | 77° |
| 2026-04-20 18:26 | 41.95794 | 3.49573 | 20205 ft | 426 kts | 77° |
| 2026-04-20 18:26 | 41.96334 | 3.53512 | 20710 ft | 430 kts | 77° |
| 2026-04-20 18:27 | 41.96876 | 3.57484 | 21210 ft | 433 kts | 77° |
| 2026-04-20 18:27 | 41.97413 | 3.61428 | 21674 ft | 436 kts | 78° |
| 2026-04-20 18:27 | 41.97963 | 3.65474 | 22144 ft | 440 kts | 78° |
| 2026-04-20 18:27 | 41.98510 | 3.69520 | 22597 ft | 443 kts | 78° |
| 2026-04-20 18:28 | 41.99063 | 3.73616 | 23040 ft | 446 kts | 78° |
| 2026-04-20 18:28 | 41.99618 | 3.77741 | 23470 ft | 449 kts | 78° |
| 2026-04-20 18:28 | 42.00175 | 3.81886 | 23823 ft | 452 kts | 78° |
| 2026-04-20 18:28 | 42.00734 | 3.86064 | 24163 ft | 455 kts | 78° |
| 2026-04-20 18:29 | 42.01286 | 3.90204 | 24493 ft | 457 kts | 78° |
| 2026-04-20 18:29 | 42.01847 | 3.94421 | 24824 ft | 459 kts | 78° |
| 2026-04-20 18:29 | 42.02411 | 3.98669 | 25143 ft | 462 kts | 78° |
| 2026-04-20 18:29 | 42.02976 | 4.02940 | 25452 ft | 464 kts | 78° |
| 2026-04-20 18:30 | 42.03543 | 4.07237 | 25750 ft | 467 kts | 78° |
| 2026-04-20 18:30 | 42.04110 | 4.11554 | 26061 ft | 469 kts | 78° |
| 2026-04-20 18:30 | 42.04678 | 4.15884 | 26363 ft | 471 kts | 78° |
| 2026-04-20 18:30 | 42.05247 | 4.20235 | 26667 ft | 473 kts | 78° |
| 2026-04-20 18:31 | 42.05818 | 4.24618 | 26957 ft | 476 kts | 78° |
| 2026-04-20 18:31 | 42.06389 | 4.29011 | 27247 ft | 478 kts | 78° |
| 2026-04-20 18:31 | 42.06961 | 4.33432 | 27543 ft | 480 kts | 78° |
| 2026-04-20 18:31 | 42.07615 | 4.37779 | 27778 ft | 481 kts | 72° |
| 2026-04-20 18:32 | 42.08744 | 4.42009 | 28008 ft | 480 kts | 63° |
| 2026-04-20 18:32 | 42.10314 | 4.45975 | 28259 ft | 479 kts | 54° |
| 2026-04-20 18:32 | 42.12251 | 4.49618 | 28539 ft | 479 kts | 50° |
| 2026-04-20 18:32 | 42.14261 | 4.53226 | 28824 ft | 480 kts | 50° |
| 2026-04-20 18:33 | 42.16268 | 4.56808 | 29204 ft | 478 kts | 50° |
| 2026-04-20 18:33 | 42.18269 | 4.60400 | 29614 ft | 477 kts | 50° |
| 2026-04-20 18:33 | 42.20251 | 4.63986 | 29971 ft | 478 kts | 50° |
| 2026-04-20 18:33 | 42.22237 | 4.67606 | 29947 ft | 482 kts | 50° |
| 2026-04-20 18:34 | 42.26171 | 4.74841 | 29943 ft | 478 kts | 51° |
| 2026-04-20 18:34 | 42.30066 | 4.82050 | 29941 ft | 471 kts | 51° |
| 2026-04-20 18:35 | 42.33955 | 4.89257 | 29944 ft | 477 kts | 50° |
| 2026-04-20 18:35 | 42.37889 | 4.96556 | 29948 ft | 482 kts | 51° |
| 2026-04-20 18:36 | 42.41855 | 5.03937 | 29950 ft | 486 kts | 51° |
| 2026-04-20 18:36 | 42.45836 | 5.11366 | 29951 ft | 487 kts | 51° |
| 2026-04-20 18:37 | 42.49784 | 5.18753 | 29966 ft | 487 kts | 51° |
| 2026-04-20 18:37 | 42.53748 | 5.26187 | 29945 ft | 486 kts | 50° |
| 2026-04-20 18:38 | 42.57707 | 5.33630 | 29948 ft | 486 kts | 50° |
| 2026-04-20 18:38 | 42.61653 | 5.41065 | 29942 ft | 485 kts | 51° |
| 2026-04-20 18:39 | 42.65594 | 5.48509 | 29939 ft | 484 kts | 51° |
| 2026-04-20 18:39 | 42.69521 | 5.55947 | 29941 ft | 484 kts | 51° |
| 2026-04-20 18:40 | 42.73442 | 5.63390 | 29940 ft | 484 kts | 51° |
| 2026-04-20 18:40 | 42.77340 | 5.70808 | 29937 ft | 484 kts | 51° |
| 2026-04-20 18:41 | 42.81254 | 5.78276 | 29937 ft | 484 kts | 51° |
| 2026-04-20 18:41 | 42.85105 | 5.85818 | 29928 ft | 487 kts | 57° |
| 2026-04-20 18:42 | 42.87581 | 5.94463 | 29942 ft | 493 kts | 73° |
| 2026-04-20 18:42 | 42.89245 | 6.03474 | 29921 ft | 494 kts | 73° |
| 2026-04-20 18:43 | 42.90919 | 6.12565 | 29910 ft | 494 kts | 73° |
| 2026-04-20 18:43 | 42.92628 | 6.21623 | 29908 ft | 493 kts | 73° |
| 2026-04-20 18:44 | 42.94353 | 6.30685 | 29908 ft | 493 kts | 73° |
| 2026-04-20 18:44 | 42.96076 | 6.39759 | 29911 ft | 493 kts | 73° |
| 2026-04-20 18:45 | 42.97790 | 6.48838 | 29915 ft | 493 kts | 73° |
| 2026-04-20 18:45 | 42.99493 | 6.57911 | 29917 ft | 493 kts | 73° |
| 2026-04-20 18:46 | 43.01191 | 6.66999 | 29912 ft | 493 kts | 73° |
| 2026-04-20 18:46 | 43.02871 | 6.76040 | 29921 ft | 493 kts | 73° |
| 2026-04-20 18:47 | 43.04554 | 6.85139 | 29942 ft | 493 kts | 73° |
| 2026-04-20 18:47 | 43.06234 | 6.94259 | 29925 ft | 494 kts | 73° |
| 2026-04-20 18:48 | 43.07893 | 7.03314 | 29937 ft | 493 kts | 73° |
| 2026-04-20 18:48 | 43.09551 | 7.12411 | 29934 ft | 493 kts | 73° |
| 2026-04-20 18:49 | 43.11206 | 7.21533 | 29931 ft | 493 kts | 73° |
| 2026-04-20 18:49 | 43.12854 | 7.30658 | 29931 ft | 493 kts | 73° |
| 2026-04-20 18:50 | 43.14494 | 7.39787 | 29926 ft | 493 kts | 73° |
| 2026-04-20 18:50 | 43.16126 | 7.48919 | 29936 ft | 493 kts | 73° |
| 2026-04-20 18:51 | 43.17750 | 7.58048 | 29928 ft | 493 kts | 73° |
| 2026-04-20 18:51 | 43.19357 | 7.67126 | 29927 ft | 493 kts | 73° |
| 2026-04-20 18:52 | 43.20968 | 7.76276 | 29932 ft | 493 kts | 73° |
| 2026-04-20 18:52 | 43.22569 | 7.85414 | 29934 ft | 493 kts | 73° |
| 2026-04-20 18:53 | 43.24162 | 7.94552 | 29933 ft | 493 kts | 74° |
| 2026-04-20 18:53 | 43.25480 | 8.02152 | 29932 ft | 493 kts | 74° |
| 2026-04-20 18:54 | 43.27063 | 8.11317 | 29937 ft | 493 kts | 74° |
| 2026-04-20 18:54 | 43.28644 | 8.20512 | 29035 ft | 497 kts | 74° |
| 2026-04-20 18:55 | 43.29432 | 8.25120 | 28249 ft | 493 kts | 74° |
| 2026-04-20 18:55 | 43.30212 | 8.29693 | 27543 ft | 489 kts | 74° |
| 2026-04-20 18:55 | 43.30979 | 8.34210 | 26926 ft | 483 kts | 74° |
| 2026-04-20 18:55 | 43.31739 | 8.38690 | 26314 ft | 478 kts | 75° |
| 2026-04-20 18:56 | 43.32488 | 8.43114 | 25727 ft | 473 kts | 75° |
| 2026-04-20 18:56 | 43.33228 | 8.47494 | 25132 ft | 469 kts | 75° |
| 2026-04-20 18:56 | 43.33953 | 8.51795 | 24541 ft | 464 kts | 75° |
| 2026-04-20 18:56 | 43.34679 | 8.56109 | 23955 ft | 461 kts | 75° |
| 2026-04-20 18:57 | 43.35396 | 8.60380 | 23333 ft | 457 kts | 75° |
| 2026-04-20 18:57 | 43.36106 | 8.64622 | 22660 ft | 454 kts | 75° |
| 2026-04-20 18:57 | 43.36807 | 8.68825 | 22063 ft | 449 kts | 75° |
| 2026-04-20 18:57 | 43.37498 | 8.72981 | 21469 ft | 444 kts | 75° |
| 2026-04-20 18:58 | 43.38184 | 8.77108 | 20872 ft | 440 kts | 75° |
| 2026-04-20 18:58 | 43.38860 | 8.81189 | 20301 ft | 436 kts | 75° |
| 2026-04-20 18:58 | 43.39529 | 8.85236 | 19736 ft | 432 kts | 75° |
| 2026-04-20 18:58 | 43.40191 | 8.89248 | 19177 ft | 429 kts | 75° |
| 2026-04-20 18:59 | 43.40846 | 8.93231 | 18599 ft | 426 kts | 75° |
| 2026-04-20 18:59 | 43.41490 | 8.97151 | 17976 ft | 424 kts | 75° |
| 2026-04-20 18:59 | 43.42135 | 9.01089 | 17353 ft | 420 kts | 75° |
| 2026-04-20 18:59 | 43.42775 | 9.05001 | 16764 ft | 416 kts | 75° |
| 2026-04-20 19:00 | 43.43406 | 9.08874 | 16198 ft | 412 kts | 75° |
| 2026-04-20 19:00 | 43.44029 | 9.12701 | 15657 ft | 408 kts | 75° |
| 2026-04-20 19:00 | 43.44644 | 9.16493 | 15129 ft | 404 kts | 75° |
| 2026-04-20 19:00 | 43.45252 | 9.20244 | 14610 ft | 400 kts | 75° |
| 2026-04-20 19:01 | 43.45853 | 9.23965 | 14089 ft | 397 kts | 76° |
| 2026-04-20 19:01 | 43.46450 | 9.27662 | 13537 ft | 394 kts | 76° |
| 2026-04-20 19:01 | 43.47041 | 9.31336 | 12956 ft | 391 kts | 76° |
| 2026-04-20 19:01 | 43.47617 | 9.34924 | 12397 ft | 387 kts | 76° |
| 2026-04-20 19:02 | 43.48195 | 9.38536 | 11856 ft | 384 kts | 76° |
| 2026-04-20 19:02 | 43.48766 | 9.42105 | 11454 ft | 377 kts | 76° |
| 2026-04-20 19:02 | 43.49320 | 9.45575 | 11312 ft | 365 kts | 76° |
| 2026-04-20 19:02 | 43.49856 | 9.48947 | 11156 ft | 353 kts | 76° |
| 2026-04-20 19:03 | 43.50363 | 9.52195 | 11006 ft | 341 kts | 78° |
| 2026-04-20 19:03 | 43.50536 | 9.55427 | 10702 ft | 337 kts | 91° |
| 2026-04-20 19:03 | 43.50410 | 9.58596 | 10400 ft | 333 kts | 93° |
| 2026-04-20 19:03 | 43.50250 | 9.61763 | 10086 ft | 330 kts | 94° |
| 2026-04-20 19:04 | 43.50093 | 9.64859 | 9931 ft | 315 kts | 93° |
| 2026-04-20 19:04 | 43.49952 | 9.67792 | 9733 ft | 301 kts | 93° |
| 2026-04-20 19:04 | 43.49820 | 9.70693 | 9203 ft | 301 kts | 93° |
| 2026-04-20 19:04 | 43.49696 | 9.73536 | 8831 ft | 295 kts | 93° |
| 2026-04-20 19:05 | 43.49577 | 9.76337 | 8527 ft | 290 kts | 93° |
| 2026-04-20 19:05 | 43.49461 | 9.79110 | 8261 ft | 292 kts | 93° |
| 2026-04-20 19:05 | 43.49344 | 9.81918 | 7967 ft | 295 kts | 93° |
| 2026-04-20 19:05 | 43.49227 | 9.84733 | 7662 ft | 293 kts | 93° |
| 2026-04-20 19:06 | 43.49110 | 9.87527 | 7371 ft | 290 kts | 94° |
| 2026-04-20 19:06 | 43.48994 | 9.90285 | 7084 ft | 287 kts | 94° |
| 2026-04-20 19:06 | 43.48879 | 9.93029 | 6798 ft | 285 kts | 94° |
| 2026-04-20 19:06 | 43.48764 | 9.95744 | 6539 ft | 289 kts | 94° |
| 2026-04-20 19:07 | 43.48645 | 9.98523 | 6239 ft | 290 kts | 94° |
| 2026-04-20 19:07 | 43.48527 | 10.01288 | 5928 ft | 288 kts | 94° |
| 2026-04-20 19:07 | 43.48409 | 10.04031 | 5633 ft | 286 kts | 95° |
| 2026-04-20 19:07 | 43.48293 | 10.06746 | 5336 ft | 282 kts | 95° |
| 2026-04-20 19:08 | 43.48177 | 10.09421 | 5061 ft | 276 kts | 95° |
| 2026-04-20 19:08 | 43.47952 | 10.14549 | 4534 ft | 265 kts | 96° |
| 2026-04-20 19:08 | 43.47904 | 10.17052 | 4278 ft | 259 kts | 84° |
| 2026-04-20 19:09 | 43.48563 | 10.19284 | 3999 ft | 251 kts | 47° |
| 2026-04-20 19:09 | 43.49935 | 10.20616 | 3785 ft | 235 kts | 24° |
| 2026-04-20 19:09 | 43.51305 | 10.21746 | 3530 ft | 225 kts | 32° |
| 2026-04-20 19:09 | 43.52542 | 10.23000 | 3318 ft | 215 kts | 34° |
| 2026-04-20 19:10 | 43.53703 | 10.24213 | 3101 ft | 205 kts | 34° |
| 2026-04-20 19:10 | 43.54814 | 10.25371 | 2890 ft | 196 kts | 34° |
| 2026-04-20 19:10 | 43.55890 | 10.26488 | 2802 ft | 193 kts | 34° |
| 2026-04-20 19:10 | 43.56945 | 10.27581 | 2562 ft | 189 kts | 35° |
| 2026-04-20 19:11 | 43.57983 | 10.28659 | 2309 ft | 184 kts | 34° |
| 2026-04-20 19:11 | 43.58986 | 10.29698 | 2066 ft | 178 kts | 34° |
| 2026-04-20 19:11 | 43.59965 | 10.30715 | 1828 ft | 175 kts | 36° |
| 2026-04-20 19:11 | 43.60934 | 10.31721 | 1636 ft | 171 kts | 35° |
| 2026-04-20 19:12 | 43.61867 | 10.32686 | 1412 ft | 160 kts | 36° |
| 2026-04-20 19:12 | 43.62738 | 10.33590 | 1167 ft | 153 kts | 35° |
| 2026-04-20 19:12 | 43.63576 | 10.34459 | 988 ft | 149 kts | 36° |
| 2026-04-20 19:12 | 43.64412 | 10.35330 | 763 ft | 150 kts | 36° |
| 2026-04-20 19:13 | 43.65235 | 10.36182 | 556 ft | 149 kts | 36° |
| 2026-04-20 19:13 | 43.66052 | 10.37025 | 385 ft | 145 kts | 36° |
| 2026-04-20 19:13 | 43.66865 | 10.37866 | 202 ft | 147 kts | 36° |
| 2026-04-20 19:13 | 43.67687 | 10.38712 | 23 ft | 147 kts | 36° |
| 2026-04-20 19:14 | 43.68421 | 10.39459 | 19 ft | 111 kts | 37° |
| 2026-04-20 19:14 | 43.68909 | 10.39964 | 19 ft | 52 kts | 36° |
| 2026-04-20 19:14 | 43.69031 | 10.40095 | 20 ft | 19 kts | 38° |
| 2026-04-20 19:14 | 43.69151 | 10.40221 | 19 ft | 23 kts | 37° |
| 2026-04-20 19:15 | 43.69239 | 10.40300 | 20 ft | 12 kts | 11° |
| 2026-04-20 19:15 | 43.69307 | 10.40241 | 17 ft | 13 kts | 309° |
| 2026-04-20 19:15 | 43.69354 | 10.40158 | 22 ft | 8 kts | 311° |
| 2026-04-20 19:15 | 43.69394 | 10.40112 | 22 ft | 9 kts | 335° |
| 2026-04-20 19:16 | 43.69481 | 10.40089 | 16 ft | 18 kts | 351° |
| 2026-04-20 19:16 | 43.69622 | 10.40060 | 14 ft | 21 kts | 352° |
| 2026-04-20 19:16 | 43.69708 | 10.40061 | 14 ft | 6 kts | 37° |
| 2026-04-20 19:16 | 43.69738 | 10.40087 | 14 ft | 4 kts | 14° |
| 2026-04-20 19:17 | 43.69748 | 10.40090 | 14 ft | 1 kts | 11° |
| 2026-04-20 19:17 | 43.69758 | 10.40092 | 14 ft | 0 kts | 10° |